sensor_id;sensor_type;location;lat;lon;timestamp;pressure;altitude;pressure_sealevel;temperature;humidity
78685;BME280;68002;52.310;6.990;2023-05-08T00:01:44;101742.16;;;13.78;71.30
78685;BME280;68002;52.310;6.990;2023-05-08T00:04:09;101740.19;;;13.80;70.58
78685;BME280;68002;52.310;6.990;2023-05-08T00:06:34;101738.75;;;13.76;70.87
78685;BME280;68002;52.310;6.990;2023-05-08T00:09:00;101734.63;;;13.72;71.01
78685;BME280;68002;52.310;6.990;2023-05-08T00:11:25;101735.63;;;13.71;70.82
78685;BME280;68002;52.310;6.990;2023-05-08T00:13:50;101732.38;;;13.68;70.89
78685;BME280;68002;52.310;6.990;2023-05-08T00:16:15;101735.59;;;13.62;70.75
78685;BME280;68002;52.310;6.990;2023-05-08T00:18:40;101736.19;;;13.65;71.46
78685;BME280;68002;52.310;6.990;2023-05-08T00:21:06;101729.50;;;13.60;71.07
78685;BME280;68002;52.310;6.990;2023-05-08T00:23:32;101740.13;;;13.61;70.92
78685;BME280;68002;52.310;6.990;2023-05-08T00:25:57;101740.53;;;13.57;71.61
78685;BME280;68002;52.310;6.990;2023-05-08T00:28:22;101736.41;;;13.53;71.69
78685;BME280;68002;52.310;6.990;2023-05-08T00:30:47;101745.47;;;13.52;71.16
78685;BME280;68002;52.310;6.990;2023-05-08T00:33:13;101736.09;;;13.46;71.52
78685;BME280;68002;52.310;6.990;2023-05-08T00:35:38;101727.06;;;13.47;71.13
78685;BME280;68002;52.310;6.990;2023-05-08T00:38:03;101735.13;;;13.47;71.65
78685;BME280;68002;52.310;6.990;2023-05-08T00:40:28;101730.72;;;13.46;71.89
78685;BME280;68002;52.310;6.990;2023-05-08T00:42:54;101745.88;;;13.47;71.03
78685;BME280;68002;52.310;6.990;2023-05-08T00:45:19;101735.66;;;13.41;71.57
78685;BME280;68002;52.310;6.990;2023-05-08T00:47:44;101740.91;;;13.43;71.06
78685;BME280;68002;52.310;6.990;2023-05-08T00:50:09;101735.22;;;13.36;71.14
78685;BME280;68002;52.310;6.990;2023-05-08T00:52:35;101734.50;;;13.34;71.38
78685;BME280;68002;52.310;6.990;2023-05-08T00:55:03;101743.28;;;13.36;71.75
78685;BME280;68002;52.310;6.990;2023-05-08T00:57:31;101743.28;;;13.36;71.37
78685;BME280;68002;52.310;6.990;2023-05-08T00:59:58;101742.84;;;13.31;71.42
78685;BME280;68002;52.310;6.990;2023-05-08T01:02:24;101743.81;;;13.30;71.80
78685;BME280;68002;52.310;6.990;2023-05-08T01:04:51;101735.75;;;13.30;71.32
78685;BME280;68002;52.310;6.990;2023-05-08T01:07:17;101715.34;;;13.18;71.09
78685;BME280;68002;52.310;6.990;2023-05-08T01:09:42;101737.00;;;13.26;71.52
78685;BME280;68002;52.310;6.990;2023-05-08T01:17:26;101733.44;;;13.16;71.89
78685;BME280;68002;52.310;6.990;2023-05-08T01:20:01;101734.16;;;13.18;71.90
78685;BME280;68002;52.310;6.990;2023-05-08T01:25:45;101737.66;;;13.09;72.43
78685;BME280;68002;52.310;6.990;2023-05-08T01:28:43;101737.31;;;13.02;71.46
78685;BME280;68002;52.310;6.990;2023-05-08T01:33:52;101733.03;;;13.00;71.96
78685;BME280;68002;52.310;6.990;2023-05-08T01:36:49;101731.75;;;12.94;71.94
78685;BME280;68002;52.310;6.990;2023-05-08T01:42:33;101735.53;;;12.92;72.51
78685;BME280;68002;52.310;6.990;2023-05-08T01:45:02;101740.59;;;12.85;72.60
78685;BME280;68002;52.310;6.990;2023-05-08T01:47:32;101729.72;;;12.87;72.79
78685;BME280;68002;52.310;6.990;2023-05-08T01:50:17;101730.88;;;12.73;72.99
78685;BME280;68002;52.310;6.990;2023-05-08T01:52:48;101721.72;;;12.76;72.31
78685;BME280;68002;52.310;6.990;2023-05-08T01:55:23;101736.59;;;12.80;72.50
78685;BME280;68002;52.310;6.990;2023-05-08T01:57:53;101736.97;;;12.75;73.02
78685;BME280;68002;52.310;6.990;2023-05-08T02:00:20;101741.25;;;12.78;72.12
78685;BME280;68002;52.310;6.990;2023-05-08T02:02:47;101745.63;;;12.79;71.90
78685;BME280;68002;52.310;6.990;2023-05-08T02:05:13;101743.06;;;12.77;72.66
78685;BME280;68002;52.310;6.990;2023-05-08T02:07:40;101740.25;;;12.79;72.50
78685;BME280;68002;52.310;6.990;2023-05-08T02:10:07;101738.56;;;12.78;71.82
78685;BME280;68002;52.310;6.990;2023-05-08T02:12:33;101743.94;;;12.78;72.25
78685;BME280;68002;52.310;6.990;2023-05-08T02:15:01;101744.75;;;12.78;72.21
78685;BME280;68002;52.310;6.990;2023-05-08T02:17:27;101742.34;;;12.75;72.01
78685;BME280;68002;52.310;6.990;2023-05-08T02:19:55;101744.75;;;12.78;72.93
78685;BME280;68002;52.310;6.990;2023-05-08T02:22:22;101738.78;;;12.75;72.27
78685;BME280;68002;52.310;6.990;2023-05-08T02:24:49;101743.56;;;12.71;71.82
78685;BME280;68002;52.310;6.990;2023-05-08T02:27:16;101742.25;;;12.66;72.70
78685;BME280;68002;52.310;6.990;2023-05-08T02:29:42;101747.78;;;12.64;72.31
78685;BME280;68002;52.310;6.990;2023-05-08T02:32:07;101749.13;;;12.59;72.85
78685;BME280;68002;52.310;6.990;2023-05-08T02:34:34;101739.50;;;12.56;72.74
78685;BME280;68002;52.310;6.990;2023-05-08T02:37:01;101750.66;;;12.52;72.52
78685;BME280;68002;52.310;6.990;2023-05-08T02:39:29;101742.59;;;12.52;72.63
78685;BME280;68002;52.310;6.990;2023-05-08T02:41:55;101737.59;;;12.47;72.48
78685;BME280;68002;52.310;6.990;2023-05-08T02:44:20;101747.75;;;12.44;72.61
78685;BME280;68002;52.310;6.990;2023-05-08T02:46:59;101747.75;;;12.44;72.70
78685;BME280;68002;52.310;6.990;2023-05-08T02:49:35;101747.75;;;12.44;72.40
78685;BME280;68002;52.310;6.990;2023-05-08T02:52:16;101749.59;;;12.43;72.60
78685;BME280;68002;52.310;6.990;2023-05-08T02:54:52;101741.41;;;12.45;73.11
78685;BME280;68002;52.310;6.990;2023-05-08T02:57:36;101736.09;;;12.34;72.72
78685;BME280;68002;52.310;6.990;2023-05-08T03:00:11;101727.31;;;12.32;73.06
78685;BME280;68002;52.310;6.990;2023-05-08T03:02:41;101736.59;;;12.28;72.09
78685;BME280;68002;52.310;6.990;2023-05-08T03:05:19;101735.75;;;12.27;73.13
78685;BME280;68002;52.310;6.990;2023-05-08T03:07:52;101738.69;;;12.24;73.22
78685;BME280;68002;52.310;6.990;2023-05-08T03:10:21;101720.94;;;12.12;72.96
78685;BME280;68002;52.310;6.990;2023-05-08T03:12:51;101730.19;;;12.19;73.47
78685;BME280;68002;52.310;6.990;2023-05-08T03:15:23;101724.22;;;12.16;73.56
78685;BME280;68002;52.310;6.990;2023-05-08T03:17:53;101717.66;;;12.08;74.08
78685;BME280;68002;52.310;6.990;2023-05-08T03:20:19;101723.25;;;12.05;73.71
78685;BME280;68002;52.310;6.990;2023-05-08T03:22:46;101720.13;;;12.00;74.13
78685;BME280;68002;52.310;6.990;2023-05-08T03:25:15;101712.44;;;11.96;73.59
78685;BME280;68002;52.310;6.990;2023-05-08T03:27:41;101716.38;;;11.92;73.96
78685;BME280;68002;52.310;6.990;2023-05-08T03:30:08;101731.25;;;11.85;74.38
78685;BME280;68002;52.310;6.990;2023-05-08T03:32:35;101728.34;;;11.88;73.67
78685;BME280;68002;52.310;6.990;2023-05-08T03:35:01;101735.66;;;11.86;74.38
78685;BME280;68002;52.310;6.990;2023-05-08T03:37:27;101743.69;;;11.86;73.26
78685;BME280;68002;52.310;6.990;2023-05-08T03:39:54;101751.59;;;11.87;73.59
78685;BME280;68002;52.310;6.990;2023-05-08T03:42:19;101753.31;;;11.88;73.52
78685;BME280;68002;52.310;6.990;2023-05-08T03:44:44;101754.28;;;11.87;73.78
78685;BME280;68002;52.310;6.990;2023-05-08T03:47:09;101745.50;;;11.85;73.54
78685;BME280;68002;52.310;6.990;2023-05-08T03:49:36;101750.00;;;11.85;73.44
78685;BME280;68002;52.310;6.990;2023-05-08T03:52:02;101737.84;;;11.81;73.64
78685;BME280;68002;52.310;6.990;2023-05-08T03:54:28;101738.69;;;11.81;73.30
78685;BME280;68002;52.310;6.990;2023-05-08T03:56:53;101748.94;;;11.76;74.35
78685;BME280;68002;52.310;6.990;2023-05-08T04:02:13;101738.81;;;11.80;73.78
78685;BME280;68002;52.310;6.990;2023-05-08T04:04:43;101747.97;;;11.88;73.61
78685;BME280;68002;52.310;6.990;2023-05-08T04:07:18;101743.69;;;11.86;73.14
78685;BME280;68002;52.310;6.990;2023-05-08T04:09:59;101751.09;;;11.93;73.32
78685;BME280;68002;52.310;6.990;2023-05-08T04:12:45;101752.06;;;11.92;73.07
78685;BME280;68002;52.310;6.990;2023-05-08T04:15:26;101754.50;;;11.95;73.24
78685;BME280;68002;52.310;6.990;2023-05-08T04:17:56;101757.41;;;12.03;73.13
78685;BME280;68002;52.310;6.990;2023-05-08T04:20:25;101754.59;;;12.05;72.56
78685;BME280;68002;52.310;6.990;2023-05-08T04:22:52;101744.13;;;12.02;72.74
78685;BME280;68002;52.310;6.990;2023-05-08T04:25:18;101737.06;;;12.01;72.67
78685;BME280;68002;52.310;6.990;2023-05-08T04:27:44;101743.75;;;12.06;72.93
78685;BME280;68002;52.310;6.990;2023-05-08T04:30:10;101736.06;;;12.02;72.94
78685;BME280;68002;52.310;6.990;2023-05-08T04:32:36;101743.25;;;12.01;72.50
78685;BME280;68002;52.310;6.990;2023-05-08T04:35:02;101743.84;;;12.05;72.93
78685;BME280;68002;52.310;6.990;2023-05-08T04:37:28;101734.25;;;12.02;73.01
78685;BME280;68002;52.310;6.990;2023-05-08T04:39:54;101739.81;;;12.10;72.94
78685;BME280;68002;52.310;6.990;2023-05-08T04:42:19;101729.09;;;12.10;72.35
78685;BME280;68002;52.310;6.990;2023-05-08T04:44:45;101735.91;;;12.14;72.41
78685;BME280;68002;52.310;6.990;2023-05-08T04:47:10;101745.69;;;12.16;72.77
78685;BME280;68002;52.310;6.990;2023-05-08T04:49:35;101743.47;;;12.21;72.46
78685;BME280;68002;52.310;6.990;2023-05-08T04:52:00;101736.28;;;12.21;72.07
78685;BME280;68002;52.310;6.990;2023-05-08T04:54:26;101751.97;;;12.26;71.80
78685;BME280;68002;52.310;6.990;2023-05-08T04:56:51;101738.72;;;12.13;71.99
78685;BME280;68002;52.310;6.990;2023-05-08T04:59:16;101746.13;;;12.21;72.27
78685;BME280;68002;52.310;6.990;2023-05-08T05:01:41;101748.69;;;12.22;72.30
78685;BME280;68002;52.310;6.990;2023-05-08T05:04:07;101753.09;;;12.23;72.11
78685;BME280;68002;52.310;6.990;2023-05-08T05:06:32;101746.00;;;12.22;72.13
78685;BME280;68002;52.310;6.990;2023-05-08T05:08:57;101760.47;;;12.31;72.43
78685;BME280;68002;52.310;6.990;2023-05-08T05:11:22;101752.44;;;12.31;72.11
78685;BME280;68002;52.310;6.990;2023-05-08T05:13:47;101756.84;;;12.32;71.56
78685;BME280;68002;52.310;6.990;2023-05-08T05:16:13;101757.69;;;12.32;71.91
78685;BME280;68002;52.310;6.990;2023-05-08T05:18:38;101767.06;;;12.38;71.30
78685;BME280;68002;52.310;6.990;2023-05-08T05:21:03;101761.94;;;12.35;71.06
78685;BME280;68002;52.310;6.990;2023-05-08T05:23:28;101768.88;;;12.37;70.89
78685;BME280;68002;52.310;6.990;2023-05-08T05:25:53;101766.66;;;12.42;71.33
78685;BME280;68002;52.310;6.990;2023-05-08T05:28:19;101763.47;;;12.48;71.13
78685;BME280;68002;52.310;6.990;2023-05-08T05:30:47;101764.56;;;12.46;71.04
78685;BME280;68002;52.310;6.990;2023-05-08T05:33:12;101773.56;;;12.56;71.22
78685;BME280;68002;52.310;6.990;2023-05-08T05:35:37;101762.47;;;12.49;70.50
78685;BME280;68002;52.310;6.990;2023-05-08T05:38:03;101761.69;;;12.58;70.26
78685;BME280;68002;52.310;6.990;2023-05-08T05:40:28;101767.06;;;12.58;70.70
78685;BME280;68002;52.310;6.990;2023-05-08T05:42:53;101766.44;;;12.66;71.02
78685;BME280;68002;52.310;6.990;2023-05-08T05:45:18;101770.28;;;12.73;70.93
78685;BME280;68002;52.310;6.990;2023-05-08T05:47:45;101762.16;;;12.84;70.08
78685;BME280;68002;52.310;6.990;2023-05-08T05:50:10;101769.63;;;12.80;70.11
78685;BME280;68002;52.310;6.990;2023-05-08T05:52:35;101772.47;;;12.79;70.31
78685;BME280;68002;52.310;6.990;2023-05-08T05:55:01;101776.31;;;12.86;70.66
78685;BME280;68002;52.310;6.990;2023-05-08T05:57:26;101779.66;;;12.99;70.74
78685;BME280;68002;52.310;6.990;2023-05-08T05:59:51;101781.94;;;13.15;70.49
78685;BME280;68002;52.310;6.990;2023-05-08T06:02:16;101780.84;;;13.27;69.11
78685;BME280;68002;52.310;6.990;2023-05-08T06:04:41;101778.22;;;13.36;69.38
78685;BME280;68002;52.310;6.990;2023-05-08T06:07:07;101777.56;;;13.44;68.76
78685;BME280;68002;52.310;6.990;2023-05-08T06:09:32;101781.69;;;13.48;68.94
78685;BME280;68002;52.310;6.990;2023-05-08T06:11:57;101775.53;;;13.76;69.11
78685;BME280;68002;52.310;6.990;2023-05-08T06:14:22;101773.50;;;13.98;69.14
78685;BME280;68002;52.310;6.990;2023-05-08T06:16:47;101778.34;;;14.24;68.47
78685;BME280;68002;52.310;6.990;2023-05-08T06:19:13;101780.25;;;14.42;67.98
78685;BME280;68002;52.310;6.990;2023-05-08T06:21:38;101774.72;;;14.44;65.13
78685;BME280;68002;52.310;6.990;2023-05-08T06:24:03;101772.72;;;14.36;65.38
78685;BME280;68002;52.310;6.990;2023-05-08T06:26:28;101776.66;;;14.23;65.11
78685;BME280;68002;52.310;6.990;2023-05-08T06:28:54;101783.88;;;14.22;65.14
78685;BME280;68002;52.310;6.990;2023-05-08T06:31:19;101779.81;;;14.28;66.35
78685;BME280;68002;52.310;6.990;2023-05-08T06:33:44;101781.94;;;14.53;66.69
78685;BME280;68002;52.310;6.990;2023-05-08T06:36:09;101773.41;;;14.95;67.02
78685;BME280;68002;52.310;6.990;2023-05-08T06:38:35;101770.63;;;15.43;66.09
78685;BME280;68002;52.310;6.990;2023-05-08T06:41:00;101771.72;;;15.77;64.34
78685;BME280;68002;52.310;6.990;2023-05-08T06:43:25;101782.94;;;16.09;63.53
78685;BME280;68002;52.310;6.990;2023-05-08T06:45:50;101786.66;;;16.44;62.00
78685;BME280;68002;52.310;6.990;2023-05-08T06:48:15;101771.13;;;16.55;61.01
78685;BME280;68002;52.310;6.990;2023-05-08T06:50:41;101777.13;;;16.49;60.42
78685;BME280;68002;52.310;6.990;2023-05-08T06:53:06;101781.09;;;16.45;59.49
78685;BME280;68002;52.310;6.990;2023-05-08T06:55:32;101787.88;;;16.32;60.33
78685;BME280;68002;52.310;6.990;2023-05-08T06:57:57;101794.06;;;16.24;60.02
78685;BME280;68002;52.310;6.990;2023-05-08T07:00:22;101786.72;;;16.17;60.12
78685;BME280;68002;52.310;6.990;2023-05-08T07:02:48;101783.97;;;15.99;59.74
78685;BME280;68002;52.310;6.990;2023-05-08T07:05:13;101789.09;;;16.02;60.53
78685;BME280;68002;52.310;6.990;2023-05-08T07:07:38;101775.22;;;16.15;61.05
78685;BME280;68002;52.310;6.990;2023-05-08T07:10:04;101778.56;;;16.61;60.87
78685;BME280;68002;52.310;6.990;2023-05-08T07:12:29;101788.63;;;17.12;60.54
78685;BME280;68002;52.310;6.990;2023-05-08T07:14:54;101786.50;;;17.49;59.21
78685;BME280;68002;52.310;6.990;2023-05-08T07:17:19;101784.06;;;17.64;56.21
78685;BME280;68002;52.310;6.990;2023-05-08T07:19:49;101781.44;;;17.80;56.89
78685;BME280;68002;52.310;6.990;2023-05-08T07:22:14;101782.28;;;17.80;56.65
78685;BME280;68002;52.310;6.990;2023-05-08T07:24:39;101785.09;;;17.71;55.61
78685;BME280;68002;52.310;6.990;2023-05-08T07:27:04;101782.72;;;17.68;56.39
78685;BME280;68002;52.310;6.990;2023-05-08T07:29:29;101775.25;;;17.62;56.04
78685;BME280;68002;52.310;6.990;2023-05-08T07:31:55;101784.06;;;17.64;56.28
78685;BME280;68002;52.310;6.990;2023-05-08T07:34:20;101779.78;;;17.87;56.16
78685;BME280;68002;52.310;6.990;2023-05-08T07:36:45;101781.75;;;17.77;56.04
78685;BME280;68002;52.310;6.990;2023-05-08T07:39:10;101786.19;;;17.78;55.40
78685;BME280;68002;52.310;6.990;2023-05-08T07:41:36;101792.28;;;17.80;55.21
78685;BME280;68002;52.310;6.990;2023-05-08T07:44:01;101794.47;;;17.84;55.08
78685;BME280;68002;52.310;6.990;2023-05-08T07:46:26;101793.78;;;17.82;55.08
78685;BME280;68002;52.310;6.990;2023-05-08T07:48:52;101790.63;;;17.95;54.96
78685;BME280;68002;52.310;6.990;2023-05-08T07:51:17;101775.06;;;17.89;55.45
78685;BME280;68002;52.310;6.990;2023-05-08T07:53:42;101797.13;;;18.10;55.24
78685;BME280;68002;52.310;6.990;2023-05-08T07:56:07;101793.75;;;18.16;54.71
78685;BME280;68002;52.310;6.990;2023-05-08T07:58:33;101792.41;;;18.20;54.84
78685;BME280;68002;52.310;6.990;2023-05-08T08:00:58;101800.72;;;18.27;55.15
78685;BME280;68002;52.310;6.990;2023-05-08T08:03:23;101799.03;;;18.34;54.33
78685;BME280;68002;52.310;6.990;2023-05-08T08:05:48;101798.38;;;18.40;53.96
78685;BME280;68002;52.310;6.990;2023-05-08T08:08:13;101803.13;;;18.38;54.54
78685;BME280;68002;52.310;6.990;2023-05-08T08:10:39;101795.03;;;18.46;54.13
78685;BME280;68002;52.310;6.990;2023-05-08T08:13:04;101798.78;;;18.53;54.24
78685;BME280;68002;52.310;6.990;2023-05-08T08:15:29;101794.38;;;18.60;54.01
78685;BME280;68002;52.310;6.990;2023-05-08T08:17:54;101786.75;;;18.79;54.23
78685;BME280;68002;52.310;6.990;2023-05-08T08:20:20;101787.63;;;18.88;53.48
78685;BME280;68002;52.310;6.990;2023-05-08T08:22:45;101786.25;;;18.92;53.75
78685;BME280;68002;52.310;6.990;2023-05-08T08:25:10;101781.47;;;19.18;54.06
78685;BME280;68002;52.310;6.990;2023-05-08T08:27:35;101787.03;;;19.49;53.51
78685;BME280;68002;52.310;6.990;2023-05-08T08:30:00;101785.63;;;19.69;53.51
78685;BME280;68002;52.310;6.990;2023-05-08T08:32:26;101775.97;;;20.05;53.27
78685;BME280;68002;52.310;6.990;2023-05-08T08:34:51;101776.31;;;20.33;52.36
78685;BME280;68002;52.310;6.990;2023-05-08T08:37:16;101782.84;;;20.24;51.89
78685;BME280;68002;52.310;6.990;2023-05-08T08:39:41;101781.47;;;20.28;52.11
78685;BME280;68002;52.310;6.990;2023-05-08T08:42:07;101775.75;;;20.68;52.34
78685;BME280;68002;52.310;6.990;2023-05-08T08:44:32;101775.09;;;21.26;51.29
78685;BME280;68002;52.310;6.990;2023-05-08T08:46:57;101779.91;;;21.67;51.35
78685;BME280;68002;52.310;6.990;2023-05-08T08:49:27;101763.31;;;22.13;49.92
78685;BME280;68002;52.310;6.990;2023-05-08T08:52:01;101765.25;;;22.33;48.33
78685;BME280;68002;52.310;6.990;2023-05-08T08:54:28;101755.41;;;22.32;48.38
78685;BME280;68002;52.310;6.990;2023-05-08T08:56:54;101761.00;;;22.31;48.60
78685;BME280;68002;52.310;6.990;2023-05-08T08:59:22;101761.31;;;22.36;46.84
78685;BME280;68002;52.310;6.990;2023-05-08T09:01:51;101764.94;;;22.43;47.70
78685;BME280;68002;52.310;6.990;2023-05-08T09:04:17;101778.75;;;22.56;47.43
78685;BME280;68002;52.310;6.990;2023-05-08T09:06:43;101765.66;;;22.30;47.50
78685;BME280;68002;52.310;6.990;2023-05-08T09:09:11;101763.28;;;22.27;47.56
78685;BME280;68002;52.310;6.990;2023-05-08T09:11:36;101763.09;;;22.29;48.19
78685;BME280;68002;52.310;6.990;2023-05-08T09:14:03;101762.78;;;22.38;48.03
78685;BME280;68002;52.310;6.990;2023-05-08T09:16:28;101763.75;;;22.31;48.05
78685;BME280;68002;52.310;6.990;2023-05-08T09:18:53;101764.72;;;22.59;47.69
78685;BME280;68002;52.310;6.990;2023-05-08T09:21:19;101757.50;;;22.72;47.15
78685;BME280;68002;52.310;6.990;2023-05-08T09:24:02;101764.16;;;22.91;46.44
78685;BME280;68002;52.310;6.990;2023-05-08T09:26:32;101758.31;;;22.94;47.06
78685;BME280;68002;52.310;6.990;2023-05-08T09:29:18;101753.63;;;23.09;46.53
78685;BME280;68002;52.310;6.990;2023-05-08T09:31:46;101768.00;;;23.24;46.80
78685;BME280;68002;52.310;6.990;2023-05-08T09:34:28;101762.44;;;23.32;46.33
78685;BME280;68002;52.310;6.990;2023-05-08T09:36:54;101762.91;;;23.42;46.01
78685;BME280;68002;52.310;6.990;2023-05-08T09:39:22;101760.00;;;23.44;46.15
78685;BME280;68002;52.310;6.990;2023-05-08T09:41:57;101753.81;;;23.08;46.77
78685;BME280;68002;52.310;6.990;2023-05-08T09:44:23;101764.00;;;22.71;47.53
78685;BME280;68002;52.310;6.990;2023-05-08T09:46:48;101758.03;;;22.26;48.55
78685;BME280;68002;52.310;6.990;2023-05-08T09:49:16;101759.78;;;22.12;50.03
78685;BME280;68002;52.310;6.990;2023-05-08T09:51:52;101759.78;;;22.33;49.35
78685;BME280;68002;52.310;6.990;2023-05-08T09:54:18;101760.97;;;22.45;49.25
78685;BME280;68002;52.310;6.990;2023-05-08T09:56:44;101759.47;;;22.57;48.84
78685;BME280;68002;52.310;6.990;2023-05-08T09:59:24;101747.16;;;22.47;48.77
78685;BME280;68002;52.310;6.990;2023-05-08T10:01:49;101748.34;;;22.59;49.62
78685;BME280;68002;52.310;6.990;2023-05-08T10:04:14;101745.75;;;22.72;48.78
78685;BME280;68002;52.310;6.990;2023-05-08T10:06:40;101753.16;;;22.78;49.06
78685;BME280;68002;52.310;6.990;2023-05-08T10:09:14;101749.03;;;22.88;48.01
78685;BME280;68002;52.310;6.990;2023-05-08T10:11:48;101744.59;;;22.87;48.47
78685;BME280;68002;52.310;6.990;2023-05-08T10:14:13;101749.72;;;22.97;48.53
78685;BME280;68002;52.310;6.990;2023-05-08T10:16:41;101746.97;;;23.18;47.87
78685;BME280;68002;52.310;6.990;2023-05-08T10:19:12;101748.31;;;23.29;47.80
78685;BME280;68002;52.310;6.990;2023-05-08T10:21:39;101741.47;;;23.39;47.25
78685;BME280;68002;52.310;6.990;2023-05-08T10:24:12;101741.00;;;23.29;47.41
78685;BME280;68002;52.310;6.990;2023-05-08T10:26:41;101737.44;;;23.35;47.79
78685;BME280;68002;52.310;6.990;2023-05-08T10:29:12;101733.91;;;23.41;48.08
78685;BME280;68002;52.310;6.990;2023-05-08T10:31:42;101734.06;;;23.33;48.31
78685;BME280;68002;52.310;6.990;2023-05-08T10:34:13;101729.34;;;23.21;48.52
78685;BME280;68002;52.310;6.990;2023-05-08T10:36:39;101728.44;;;23.35;49.13
78685;BME280;68002;52.310;6.990;2023-05-08T10:39:04;101722.66;;;23.57;48.20
78685;BME280;68002;52.310;6.990;2023-05-08T10:41:30;101724.34;;;23.58;48.37
78685;BME280;68002;52.310;6.990;2023-05-08T10:43:58;101720.13;;;23.56;47.93
78685;BME280;68002;52.310;6.990;2023-05-08T10:46:38;101721.19;;;23.55;48.32
78685;BME280;68002;52.310;6.990;2023-05-08T10:49:21;101718.97;;;23.71;48.53
78685;BME280;68002;52.310;6.990;2023-05-08T10:52:06;101721.09;;;23.82;48.13
78685;BME280;68002;52.310;6.990;2023-05-08T10:57:09;101726.78;;;23.87;47.32
78685;BME280;68002;52.310;6.990;2023-05-08T10:59:35;101717.81;;;24.00;47.00
78685;BME280;68002;52.310;6.990;2023-05-08T11:02:03;101720.81;;;24.12;47.79
78685;BME280;68002;52.310;6.990;2023-05-08T11:04:28;101718.34;;;24.30;47.32
78685;BME280;68002;52.310;6.990;2023-05-08T11:06:54;101719.41;;;24.61;46.45
78685;BME280;68002;52.310;6.990;2023-05-08T11:11:53;101708.22;;;24.24;46.90
78685;BME280;68002;52.310;6.990;2023-05-08T11:14:22;101710.94;;;24.24;46.89
78685;BME280;68002;52.310;6.990;2023-05-08T11:19:21;101715.25;;;24.92;46.45
78685;BME280;68002;52.310;6.990;2023-05-08T11:22:20;101718.78;;;25.31;45.09
78685;BME280;68002;52.310;6.990;2023-05-08T11:24:57;101711.88;;;25.03;44.85
78685;BME280;68002;52.310;6.990;2023-05-08T11:32:58;101703.88;;;24.95;44.94
78685;BME280;68002;52.310;6.990;2023-05-08T11:43:35;101706.63;;;24.75;46.11
78685;BME280;68002;52.310;6.990;2023-05-08T11:46:07;101705.53;;;24.56;45.40
78685;BME280;68002;52.310;6.990;2023-05-08T11:48:36;101700.25;;;24.42;46.40
78685;BME280;68002;52.310;6.990;2023-05-08T11:51:02;101698.34;;;24.23;45.94
78685;BME280;68002;52.310;6.990;2023-05-08T11:53:28;101706.53;;;24.23;46.11
78685;BME280;68002;52.310;6.990;2023-05-08T11:55:54;101692.03;;;24.29;45.73
78685;BME280;68002;52.310;6.990;2023-05-08T11:58:19;101694.34;;;24.38;45.89
78685;BME280;68002;52.310;6.990;2023-05-08T12:00:46;101693.09;;;24.47;45.45
78685;BME280;68002;52.310;6.990;2023-05-08T12:03:12;101699.84;;;24.64;45.24
78685;BME280;68002;52.310;6.990;2023-05-08T12:05:38;101696.47;;;24.69;44.73
78685;BME280;68002;52.310;6.990;2023-05-08T12:08:04;101697.13;;;24.64;44.44
78685;BME280;68002;52.310;6.990;2023-05-08T12:10:30;101695.41;;;24.63;44.98
78685;BME280;68002;52.310;6.990;2023-05-08T12:12:55;101695.66;;;24.81;45.37
78685;BME280;68002;52.310;6.990;2023-05-08T12:15:21;101691.22;;;25.00;45.54
78685;BME280;68002;52.310;6.990;2023-05-08T12:17:46;101686.38;;;25.15;44.81
78685;BME280;68002;52.310;6.990;2023-05-08T12:20:15;101682.31;;;25.44;44.53
78685;BME280;68002;52.310;6.990;2023-05-08T12:22:42;101673.53;;;25.79;44.02
78685;BME280;68002;52.310;6.990;2023-05-08T12:25:15;101677.22;;;25.98;43.30
78685;BME280;68002;52.310;6.990;2023-05-08T12:27:41;101684.84;;;25.96;43.02
78685;BME280;68002;52.310;6.990;2023-05-08T12:30:09;101676.78;;;26.08;42.81
78685;BME280;68002;52.310;6.990;2023-05-08T12:32:39;101667.13;;;26.30;41.97
78685;BME280;68002;52.310;6.990;2023-05-08T12:35:09;101667.03;;;26.43;41.73
78685;BME280;68002;52.310;6.990;2023-05-08T12:37:35;101671.16;;;26.58;42.15
78685;BME280;68002;52.310;6.990;2023-05-08T12:40:00;101670.06;;;26.59;42.11
78685;BME280;68002;52.310;6.990;2023-05-08T12:45:07;101670.38;;;26.51;41.63
78685;BME280;68002;52.310;6.990;2023-05-08T12:47:32;101666.13;;;26.24;41.94
78685;BME280;68002;52.310;6.990;2023-05-08T12:49:58;101662.19;;;25.69;42.61
78685;BME280;68002;52.310;6.990;2023-05-08T12:52:23;101672.84;;;25.40;44.04
78685;BME280;68002;52.310;6.990;2023-05-08T12:54:48;101669.06;;;25.28;44.63
78685;BME280;68002;52.310;6.990;2023-05-08T12:57:15;101673.69;;;25.40;44.19
78685;BME280;68002;52.310;6.990;2023-05-08T12:59:42;101674.72;;;25.33;43.98
78685;BME280;68002;52.310;6.990;2023-05-08T13:02:12;101668.25;;;25.14;44.40
78685;BME280;68002;52.310;6.990;2023-05-08T13:04:37;101668.69;;;25.05;44.06
78685;BME280;68002;52.310;6.990;2023-05-08T13:07:02;101666.59;;;25.07;44.50
78685;BME280;68002;52.310;6.990;2023-05-08T13:09:28;101663.59;;;25.21;44.69
78685;BME280;68002;52.310;6.990;2023-05-08T13:11:53;101662.38;;;25.04;44.66
78685;BME280;68002;52.310;6.990;2023-05-08T13:14:18;101663.00;;;25.06;44.28
78685;BME280;68002;52.310;6.990;2023-05-08T13:16:44;101660.06;;;24.95;44.68
78685;BME280;68002;52.310;6.990;2023-05-08T13:19:10;101657.09;;;24.96;44.79
78685;BME280;68002;52.310;6.990;2023-05-08T13:21:35;101649.34;;;24.86;45.31
78685;BME280;68002;52.310;6.990;2023-05-08T13:24:00;101648.06;;;24.89;45.87
78685;BME280;68002;52.310;6.990;2023-05-08T13:26:26;101640.69;;;25.03;44.69
78685;BME280;68002;52.310;6.990;2023-05-08T13:28:51;101651.03;;;24.87;45.78
78685;BME280;68002;52.310;6.990;2023-05-08T13:31:17;101642.00;;;24.74;46.77
78685;BME280;68002;52.310;6.990;2023-05-08T13:33:42;101639.22;;;24.94;46.53